Terminal Aerodrome Forecast
Issued by NWS

Home | Current Version | Previous Version | Text Only | Print | Product List | Glossary Off
Versions: 1 2 3 4 5 6 7 8 9 10 11 12 13 14

000
FTUS43 KBIS 222300
TAFJMS
TAF
KJMS 222320Z 2300/2324 16008KT P6SM OVC120
     FM230300 23012KT P6SM SCT040 BKN080 OVC150
     FM231000 23010KT P6SM BKN035 OVC050
     FM231600 29021G31KT P6SM VCSH OVC025=

USA.gov is the U.S. government's official web portal to all federal, state and local government web resources and services.